CDT,Max TemperatureF,Mean TemperatureF,Min TemperatureF,Max Dew PointF,MeanDew PointF,Min DewpointF,Max Humidity, Mean Humidity, Min Humidity, Max Sea Level PressureIn, Mean Sea Level PressureIn, Min Sea Level PressureIn, Max VisibilityMiles, Mean VisibilityMiles, Min VisibilityMiles, Max Wind SpeedMPH, Mean Wind SpeedMPH, Max Gust SpeedMPH,PrecipitationIn, CloudCover, Events, WindDirDegrees
2014-4-1,57,47,37,46,30,21,81,54,33,30.14,30.05,29.95,10,10,7,15,8,20,0.00,4,Thunderstorm,357
2014-4-2,62,52,44,61,45,39,94,85,76,30.00,29.89,29.76,10,7,2,17,9,28,0.00,7,Thunderstorm,80
2014-4-3,71,61,51,63,58,45,94,84,68,29.75,29.65,29.53,10,9,2,14,8,26,0.62,7,Thunderstorm,127
2014-4-4,51,45,39,45,30,25,82,61,49,30.19,29.99,29.71,10,10,10,17,10,31,0.32,8,,297
2014-4-5,57,42,28,28,27,25,87,52,31,30.24,30.16,30.08,10,10,10,10,3,,0.09,1,,60
2014-4-6,62,52,41,36,31,27,76,47,27,30.10,29.98,29.82,10,10,10,10,5,,0.03,1,,112
2014-4-7,62,52,42,41,35,27,87,58,27,29.82,29.78,29.73,10,10,8,12,5,17,0.52,5,,309
2014-4-8,57,50,42,45,36,28,93,58,36,30.09,29.93,29.82,10,9,2,15,6,24,0.33,4,Thunderstorm,310
2014-4-9,71,50,30,34,29,25,93,48,20,30.17,30.06,29.92,10,10,10,14,5,21,0.46,0,,214
2014-4-10,80,66,53,46,39,30,49,37,26,29.99,29.86,29.80,10,10,10,20,10,30,0.23,0,,228
2014-4-11,75,62,48,46,35,28,58,38,25,30.10,30.03,29.96,10,10,5,12,5,16,0.10,2,,73
2014-4-12,82,71,60,55,53,48,77,56,39,29.98,29.83,29.71,10,10,10,21,10,32,0.24,1,,178
2014-4-13,71,66,62,59,55,52,83,68,53,29.75,29.67,29.55,10,10,9,26,11,39,0.77,5,Thunderstorm,174
2014-4-14,37,34,30,32,26,21,87,72,60,30.17,30.11,30.07,10,9,2,12,7,22,0.00,3,,327
2014-4-15,51,38,26,25,20,18,80,49,26,30.26,30.19,30.13,10,10,10,12,4,18,0.00,0,,323
2014-4-16,60,48,37,28,25,19,61,41,25,30.16,30.09,29.98,10,10,10,23,10,33,0.00,0,,162
2014-4-17,60,50,39,39,33,27,71,53,39,30.30,30.22,30.09,10,10,8,10,6,16,0.00,1,,290
2014-4-18,69,54,39,41,37,36,87,54,31,30.33,30.27,30.18,10,10,8,9,3,,0.00,2,,69
2014-4-19,78,64,50,43,38,36,62,40,21,30.27,30.20,30.12,10,10,10,13,6,21,0.00,0,,161
2014-4-20,78,66,55,48,44,37,59,44,32,30.19,30.13,30.04,10,10,10,15,6,23,0.00,1,,175
2014-4-21,71,64,57,61,55,48,94,73,57,30.06,30.00,29.93,10,9,3,9,3,,0.00,6,,243
2014-4-22,68,59,50,55,38,30,88,49,24,30.11,30.05,29.98,10,10,6,13,6,21,0.00,0,,356
2014-4-23,75,58,41,37,34,30,76,42,19,30.09,29.98,29.86,10,10,6,12,4,20,0.00,2,,125
2014-4-24,77,64,51,55,45,34,94,58,34,29.86,29.75,29.63,10,10,2,18,10,28,0.00,3,Thunderstorm,185
2014-4-25,77,62,46,46,41,36,93,53,24,30.00,29.93,29.83,10,10,8,14,6,20,0.00,0,,239
2014-4-26,78,64,51,52,43,37,72,46,28,29.95,29.84,29.70,10,10,9,17,7,24,0.00,1,,150
2014-4-27,77,68,59,63,56,45,88,69,46,29.70,29.59,29.46,10,10,2,23,9,34,0.00,4,Thunderstorm,138
2014-4-28,69,63,57,57,46,32,94,58,28,29.57,29.46,29.40,10,10,5,26,11,32,0.00,4,Thunderstorm,198
2014-4-29,60,53,46,43,38,30,87,62,31,29.81,29.61,29.49,10,10,5,22,14,31,0.00,7,,236
2014-4-30,53,47,41,43,35,32,87,64,47,29.99,29.92,29.81,10,10,5,15,8,24,0.00,7,,282